CYAH

La Grande-4 Airport

Code ICAO CYAH
Code IATA YAH
Nom La Grande-4 Airport
Emplacement La Grande-4, Quebec, CA
Élévation 1005 pieds / 306.3 mètres
Latitude 53.75472222
Longitude -73.67527778
METAR CYAH 040826Z AUTO 29010KT 9SM BKN008 OVC014 05/04 A2983 RMK SLP119
Informations extras Afficher NOTAMS
Afficher cartes
Piste Longueur Largeur Surface Élévation
09 5009 ft 150 ft GRAVEL 993 ft
27 5009 ft 150 ft GRAVEL 1002 ft